createdAt,value
2023-02-24T00:00:52.269Z,75.80
2023-02-24T00:03:24.900Z,75.90
2023-02-24T00:05:59.567Z,76.70
2023-02-24T00:08:32.363Z,75.90
2023-02-24T00:11:13.601Z,75.90
2023-02-24T00:13:47.463Z,75.90
2023-02-24T00:16:21.025Z,75.90
2023-02-24T00:18:53.993Z,75.90
2023-02-24T00:21:26.996Z,75.90
2023-02-24T00:24:02.370Z,75.90
2023-02-24T00:26:35.143Z,75.90
2023-02-24T00:29:11.394Z,75.90
2023-02-24T00:31:44.301Z,75.90
2023-02-24T00:34:16.974Z,75.80
2023-02-24T00:36:50.042Z,75.80
2023-02-24T00:39:30.860Z,75.80
2023-02-24T00:42:06.156Z,75.80
2023-02-24T00:44:41.690Z,75.80
2023-02-24T00:47:18.714Z,75.80
2023-02-24T00:49:51.475Z,75.80
2023-02-24T00:52:28.083Z,75.70
2023-02-24T00:55:01.077Z,75.80
2023-02-24T00:57:35.777Z,75.70
2023-02-24T01:00:16.809Z,75.70
2023-02-24T01:02:49.699Z,75.60
2023-02-24T01:05:22.466Z,75.60
2023-02-24T01:07:55.099Z,75.60
2023-02-24T01:10:28.694Z,75.60
2023-02-24T01:13:01.324Z,75.70
2023-02-24T01:15:34.028Z,75.70
2023-02-24T01:18:06.684Z,75.70
2023-02-24T01:20:39.260Z,75.60
2023-02-24T01:23:12.212Z,76.40
2023-02-24T01:25:48.193Z,75.50
2023-02-24T01:28:20.888Z,75.60
2023-02-24T01:30:54.520Z,75.50
2023-02-24T01:33:34.190Z,75.50
2023-02-24T01:36:11.777Z,75.60
2023-02-24T01:38:45.364Z,75.70
2023-02-24T01:41:33.266Z,75.70
2023-02-24T01:44:33.068Z,75.70
2023-02-24T01:47:05.620Z,75.60
2023-02-24T01:49:50.203Z,75.60
2023-02-24T01:52:26.497Z,75.70
2023-02-24T01:55:14.092Z,75.70
2023-02-24T01:57:49.181Z,75.70
2023-02-24T02:00:51.518Z,75.70
2023-02-24T02:03:29.955Z,75.70
2023-02-24T02:06:09.211Z,75.70
2023-02-24T02:08:43.673Z,75.70
2023-02-24T02:11:21.296Z,75.70
2023-02-24T02:13:54.428Z,75.70
2023-02-24T02:16:36.574Z,75.70
2023-02-24T02:19:40.447Z,75.70
2023-02-24T02:22:40.576Z,75.70
2023-02-24T02:25:47.114Z,75.60
2023-02-24T02:28:48.393Z,75.60
2023-02-24T02:31:36.198Z,75.60
2023-02-24T02:34:48.006Z,75.60
2023-02-24T02:37:41.441Z,75.70
2023-02-24T02:40:26.433Z,75.60
2023-02-24T02:43:26.149Z,75.50
2023-02-24T02:45:58.772Z,75.50
2023-02-24T02:48:44.002Z,75.40
2023-02-24T02:51:33.650Z,75.50
2023-02-24T02:54:17.781Z,75.40
2023-02-24T02:57:09.893Z,75.40
2023-02-24T02:59:52.101Z,75.40
2023-02-24T03:02:30.109Z,75.30
2023-02-24T03:05:09.584Z,75.30
2023-02-24T03:07:47.029Z,75.40
2023-02-24T03:10:28.003Z,75.40
2023-02-24T03:13:05.247Z,75.40
2023-02-24T03:15:42.592Z,75.30
2023-02-24T03:18:29.230Z,75.30
2023-02-24T03:21:08.415Z,75.30
2023-02-24T03:23:46.275Z,75.40
2023-02-24T03:26:41.659Z,75.30
2023-02-24T03:29:30.743Z,75.40
2023-02-24T03:32:09.611Z,75.30
2023-02-24T03:34:57.226Z,75.30
2023-02-24T03:37:31.585Z,75.30
2023-02-24T03:40:12.118Z,75.30
2023-02-24T03:42:52.949Z,75.40
2023-02-24T03:45:28.123Z,75.30
2023-02-24T03:48:03.580Z,75.40
2023-02-24T03:50:39.136Z,75.40
2023-02-24T03:53:23.641Z,75.40
2023-02-24T03:56:21.353Z,75.40
2023-02-24T03:59:18.793Z,75.40
2023-02-24T04:02:36.256Z,75.40
2023-02-24T04:05:31.566Z,75.50
2023-02-24T04:08:29.671Z,75.50
2023-02-24T04:11:54.627Z,75.50
2023-02-24T04:14:43.603Z,75.70
2023-02-24T04:17:51.565Z,75.50
2023-02-24T04:20:44.233Z,75.60
2023-02-24T04:23:33.577Z,75.60
2023-02-24T04:26:36.583Z,75.60
2023-02-24T04:29:29.732Z,75.60
2023-02-24T04:32:14.254Z,75.60
2023-02-24T04:34:59.955Z,75.60
2023-02-24T04:37:40.609Z,75.50
2023-02-24T04:40:30.162Z,75.50
2023-02-24T04:43:04.375Z,75.50
2023-02-24T04:45:40.394Z,75.60
2023-02-24T04:48:13.372Z,75.50
2023-02-24T04:50:46.599Z,75.50
2023-02-24T04:53:19.372Z,75.50
2023-02-24T04:55:51.980Z,75.50
2023-02-24T04:58:29.557Z,75.50
2023-02-24T05:01:09.321Z,75.50
2023-02-24T05:03:45.410Z,75.50
2023-02-24T05:06:18.693Z,75.40
2023-02-24T05:08:52.723Z,75.40
2023-02-24T05:11:25.488Z,75.40
2023-02-24T05:13:58.221Z,75.40
2023-02-24T05:16:31.225Z,75.40
2023-02-24T05:19:22.355Z,75.50
2023-02-24T05:21:54.954Z,75.40
2023-02-24T05:24:29.793Z,75.40
2023-02-24T05:27:04.065Z,75.50
2023-02-24T05:29:38.091Z,75.40
2023-02-24T05:32:10.898Z,75.50
2023-02-24T05:34:43.550Z,75.50
2023-02-24T05:37:16.940Z,75.40
2023-02-24T05:39:49.534Z,75.50
2023-02-24T05:42:22.127Z,75.40
2023-02-24T05:44:54.959Z,75.40
2023-02-24T05:47:27.948Z,75.50
2023-02-24T05:50:00.543Z,75.50
2023-02-24T05:53:00.578Z,75.40
2023-02-24T05:55:36.749Z,75.50
2023-02-24T05:58:09.375Z,75.50
2023-02-24T06:00:46.142Z,75.50
2023-02-24T06:03:26.729Z,75.50
2023-02-24T06:05:59.574Z,75.50
2023-02-24T06:08:42.679Z,75.40
2023-02-24T06:11:17.055Z,75.40
2023-02-24T06:13:49.582Z,75.40
2023-02-24T06:16:22.533Z,75.40
2023-02-24T06:18:56.872Z,75.40
2023-02-24T06:21:30.367Z,75.40
2023-02-24T06:24:03.064Z,75.30
2023-02-24T06:26:37.095Z,75.20
2023-02-24T06:29:17.591Z,75.20
2023-02-24T06:31:52.575Z,75.10
2023-02-24T06:34:26.448Z,75.00
2023-02-24T06:36:59.067Z,74.80
2023-02-24T06:39:36.792Z,74.80
2023-02-24T06:42:11.192Z,74.60
2023-02-24T06:44:43.792Z,74.50
2023-02-24T06:47:36.454Z,74.40
2023-02-24T06:50:11.133Z,74.30
2023-02-24T06:52:44.097Z,74.10
2023-02-24T06:55:26.497Z,74.00
2023-02-24T06:58:04.905Z,74.00
2023-02-24T07:00:38.699Z,73.80
2023-02-24T07:03:17.129Z,73.70
2023-02-24T07:05:54.587Z,73.60
2023-02-24T07:08:27.688Z,73.40
2023-02-24T07:11:16.636Z,73.30
2023-02-24T07:14:14.323Z,73.20
2023-02-24T07:20:40.518Z,72.90
2023-02-24T07:23:52.731Z,72.80
2023-02-24T07:26:18.883Z,72.60
2023-02-24T07:28:55.253Z,72.60
2023-02-24T07:31:28.045Z,72.30
2023-02-24T07:34:02.390Z,72.30
2023-02-24T07:36:49.456Z,72.20
2023-02-24T07:39:23.706Z,72.20
2023-02-24T07:41:57.324Z,72.00
2023-02-24T07:44:30.504Z,71.70
2023-02-24T07:47:08.150Z,71.70
2023-02-24T07:49:41.285Z,71.60
2023-02-24T07:52:38.933Z,71.60
2023-02-24T07:55:11.887Z,71.50
2023-02-24T07:57:48.678Z,71.30
2023-02-24T08:00:28.455Z,71.10
2023-02-24T08:03:01.763Z,70.90
2023-02-24T08:05:35.006Z,70.80
2023-02-24T08:08:07.598Z,70.70
2023-02-24T08:10:41.273Z,70.80
2023-02-24T08:13:13.822Z,70.50
2023-02-24T08:15:49.537Z,70.20
2023-02-24T08:18:22.251Z,70.00
2023-02-24T08:21:02.256Z,69.90
2023-02-24T08:23:44.876Z,69.80
2023-02-24T08:26:17.746Z,69.70
2023-02-24T08:28:51.887Z,69.60
2023-02-24T08:31:25.309Z,70.40
2023-02-24T08:33:58.193Z,69.50
2023-02-24T08:36:30.850Z,69.40
2023-02-24T08:39:04.124Z,69.20
2023-02-24T08:41:45.344Z,69.30
2023-02-24T08:44:20.574Z,69.30
2023-02-24T08:46:54.573Z,69.30
2023-02-24T08:49:28.584Z,69.30
2023-02-24T08:52:02.625Z,69.00
2023-02-24T08:54:35.557Z,68.90
2023-02-24T08:57:15.523Z,68.70
2023-02-24T08:59:51.274Z,68.70
2023-02-24T09:02:28.567Z,68.70
2023-02-24T09:05:05.222Z,68.50
2023-02-24T09:07:42.410Z,68.50
2023-02-24T09:10:19.880Z,68.30
2023-02-24T09:12:53.866Z,68.40
2023-02-24T09:15:41.625Z,68.20
2023-02-24T09:18:14.633Z,67.90
2023-02-24T09:21:05.678Z,67.80
2023-02-24T09:23:46.283Z,68.00
2023-02-24T09:26:20.974Z,67.80
2023-02-24T09:28:56.309Z,67.60
2023-02-24T09:31:41.195Z,67.40
2023-02-24T09:34:18.916Z,67.20
2023-02-24T09:37:03.366Z,67.10
2023-02-24T09:40:06.691Z,67.00
2023-02-24T09:42:49.199Z,66.90
2023-02-24T09:45:33.675Z,66.70
2023-02-24T09:48:16.793Z,66.60
2023-02-24T09:51:05.279Z,66.50
2023-02-24T09:53:42.694Z,66.30
2023-02-24T09:56:27.672Z,66.20
2023-02-24T09:59:12.228Z,66.20
2023-02-24T10:02:17.206Z,66.10
2023-02-24T10:05:07.444Z,65.90
2023-02-24T10:07:44.218Z,65.80
2023-02-24T10:10:29.847Z,65.70
2023-02-24T10:13:19.912Z,65.50
2023-02-24T10:16:06.893Z,65.40
2023-02-24T10:18:43.516Z,65.80
2023-02-24T10:21:48.489Z,65.70
2023-02-24T10:24:29.663Z,65.80
2023-02-24T10:27:16.773Z,65.60
2023-02-24T10:30:41.888Z,65.50
2023-02-24T10:33:20.866Z,65.70
2023-02-24T10:36:09.483Z,65.70
2023-02-24T10:38:45.752Z,65.60
2023-02-24T10:41:18.898Z,65.80
2023-02-24T10:43:56.346Z,65.80
2023-02-24T10:46:41.417Z,66.00
2023-02-24T10:49:17.029Z,65.70
2023-02-24T10:51:53.708Z,65.90
2023-02-24T10:54:45.307Z,66.10
2023-02-24T10:57:39.486Z,66.10
2023-02-24T11:00:41.003Z,66.20
2023-02-24T11:03:32.750Z,66.20
2023-02-24T11:06:06.107Z,66.20
2023-02-24T11:09:04.966Z,66.30
2023-02-24T11:11:57.099Z,66.30
2023-02-24T11:14:48.354Z,66.30
2023-02-24T11:17:27.442Z,66.30
2023-02-24T11:20:11.177Z,66.30
2023-02-24T11:22:49.442Z,66.30
2023-02-24T11:25:27.454Z,66.50
2023-02-24T11:28:00.027Z,66.60
2023-02-24T11:30:44.765Z,66.60
2023-02-24T11:33:47.699Z,66.80
2023-02-24T11:36:37.154Z,66.90
2023-02-24T11:39:21.631Z,66.90
2023-02-24T11:41:57.719Z,67.00
2023-02-24T11:44:54.094Z,67.20
2023-02-24T11:47:39.042Z,67.30
2023-02-24T11:50:26.228Z,67.40
2023-02-24T11:53:06.388Z,67.40
2023-02-24T11:55:47.193Z,67.70
2023-02-24T11:58:56.449Z,67.80
2023-02-24T12:01:59.451Z,67.90
2023-02-24T12:04:46.656Z,68.10
2023-02-24T12:07:35.720Z,68.30
2023-02-24T12:10:17.875Z,68.30
2023-02-24T12:13:11.382Z,68.50
2023-02-24T12:16:04.947Z,68.60
2023-02-24T12:19:01.124Z,68.70
2023-02-24T12:21:46.586Z,68.90
2023-02-24T12:24:21.578Z,69.00
2023-02-24T12:27:08.298Z,69.10
2023-02-24T12:30:23.289Z,69.30
2023-02-24T12:33:25.167Z,69.30
2023-02-24T12:36:22.542Z,69.50
2023-02-24T12:39:23.764Z,69.70
2023-02-24T12:42:19.655Z,69.80
2023-02-24T12:45:27.099Z,70.00
2023-02-24T12:48:46.902Z,70.10
2023-02-24T12:51:55.700Z,70.30
2023-02-24T12:54:39.651Z,70.40
2023-02-24T12:57:19.434Z,70.50
2023-02-24T12:59:52.933Z,70.60
2023-02-24T13:03:09.604Z,70.80
2023-02-24T13:06:14.987Z,70.90
2023-02-24T13:09:29.565Z,71.10
2023-02-24T13:12:24.130Z,71.20
2023-02-24T13:14:57.200Z,71.20
2023-02-24T13:17:29.841Z,71.30
2023-02-24T13:20:12.304Z,71.40
2023-02-24T13:22:47.308Z,71.50
2023-02-24T13:25:24.009Z,71.50
2023-02-24T13:28:05.163Z,71.60
2023-02-24T13:30:44.740Z,71.70
2023-02-24T13:33:20.168Z,71.80
2023-02-24T13:36:14.665Z,71.80
2023-02-24T13:38:49.733Z,71.90
2023-02-24T13:41:41.171Z,71.90
2023-02-24T13:44:20.198Z,72.10
2023-02-24T13:47:25.240Z,72.10
2023-02-24T13:50:25.548Z,72.30
2023-02-24T13:53:24.142Z,73.00
2023-02-24T13:56:22.309Z,72.30
2023-02-24T13:59:16.678Z,72.40
2023-02-24T14:02:01.866Z,72.40
2023-02-24T14:04:37.048Z,72.60
2023-02-24T14:07:12.711Z,72.60
2023-02-24T14:09:48.806Z,72.60
2023-02-24T14:12:26.032Z,72.80
2023-02-24T14:14:59.701Z,72.90
2023-02-24T14:17:36.324Z,72.90
2023-02-24T14:20:21.657Z,72.90
2023-02-24T14:22:59.164Z,73.00
2023-02-24T14:25:38.776Z,73.00
2023-02-24T14:28:21.646Z,73.10
2023-02-24T14:30:58.604Z,73.20
2023-02-24T14:33:35.474Z,73.20
2023-02-24T14:36:16.856Z,73.20
2023-02-24T14:39:08.376Z,73.30
2023-02-24T14:41:41.034Z,73.50
2023-02-24T14:44:26.553Z,73.60
2023-02-24T14:47:03.066Z,73.70
2023-02-24T14:49:36.519Z,73.90
2023-02-24T14:52:35.726Z,73.90
2023-02-24T14:55:19.493Z,74.10
2023-02-24T14:57:59.500Z,74.00
2023-02-24T15:00:38.838Z,74.00
2023-02-24T15:03:29.773Z,74.00
2023-02-24T15:06:12.186Z,74.10
2023-02-24T15:08:48.785Z,74.00
2023-02-24T15:11:27.219Z,74.00
2023-02-24T15:14:03.684Z,74.10
2023-02-24T15:16:45.610Z,74.20
2023-02-24T15:19:44.302Z,74.20
2023-02-24T15:22:29.520Z,74.30
2023-02-24T15:25:22.358Z,74.20
2023-02-24T15:28:05.439Z,74.40
2023-02-24T15:30:53.827Z,74.40
2023-02-24T15:33:39.771Z,74.50
2023-02-24T15:36:19.161Z,74.50
2023-02-24T15:39:15.999Z,74.60
2023-02-24T15:41:49.959Z,74.80
2023-02-24T15:44:27.670Z,74.80
2023-02-24T15:47:12.238Z,74.80
2023-02-24T15:49:44.781Z,74.90
2023-02-24T15:52:23.828Z,74.80
2023-02-24T15:54:59.616Z,74.90
2023-02-24T15:57:33.144Z,75.00
2023-02-24T16:00:15.218Z,75.10
2023-02-24T16:02:47.829Z,75.20
2023-02-24T16:05:20.563Z,75.20
2023-02-24T16:07:55.232Z,75.20
2023-02-24T16:10:30.286Z,75.30
2023-02-24T16:13:03.236Z,75.40
2023-02-24T16:15:38.143Z,75.50
2023-02-24T16:18:21.610Z,75.60
2023-02-24T16:20:55.583Z,75.70
2023-02-24T16:23:28.269Z,75.70
2023-02-24T16:26:01.010Z,75.70
2023-02-24T16:28:34.008Z,75.80
2023-02-24T16:31:07.678Z,75.80
2023-02-24T16:33:53.568Z,75.80
2023-02-24T16:36:28.750Z,75.70
2023-02-24T16:39:01.626Z,75.80
2023-02-24T16:41:59.303Z,75.80
2023-02-24T16:44:31.914Z,75.90
2023-02-24T16:47:07.611Z,75.90
2023-02-24T16:49:41.345Z,75.90
2023-02-24T16:52:19.373Z,76.00
2023-02-24T16:54:52.037Z,76.10
2023-02-24T16:57:25.954Z,76.90
2023-02-24T16:59:58.926Z,76.10
2023-02-24T17:02:31.699Z,76.10
2023-02-24T17:05:04.427Z,76.10
2023-02-24T17:07:50.303Z,76.10
2023-02-24T17:10:49.374Z,76.20
2023-02-24T17:13:22.755Z,76.20
2023-02-24T17:15:57.605Z,76.30
2023-02-24T17:18:30.283Z,76.30
2023-02-24T17:21:03.649Z,76.40
2023-02-24T17:23:36.360Z,76.30
2023-02-24T17:26:13.507Z,76.30
2023-02-24T17:28:46.157Z,76.40
2023-02-24T17:31:19.167Z,76.30
2023-02-24T17:33:54.194Z,76.40
2023-02-24T17:36:26.846Z,76.40
2023-02-24T17:38:59.720Z,76.40
2023-02-24T17:41:32.425Z,76.40
2023-02-24T17:44:04.964Z,76.40
2023-02-24T17:46:37.790Z,76.40
2023-02-24T17:49:10.401Z,76.40
2023-02-24T17:51:42.996Z,76.40
2023-02-24T17:54:15.587Z,76.40
2023-02-24T17:56:48.234Z,76.50
2023-02-24T17:59:20.866Z,76.40
2023-02-24T18:01:54.244Z,76.50
2023-02-24T18:04:26.948Z,76.50
2023-02-24T18:06:59.506Z,76.50
2023-02-24T18:09:32.136Z,76.50
2023-02-24T18:12:05.445Z,76.60
2023-02-24T18:14:37.912Z,76.50
2023-02-24T18:17:10.731Z,76.50
2023-02-24T18:19:43.394Z,76.50
2023-02-24T18:22:15.974Z,76.50
2023-02-24T18:24:48.727Z,76.50
2023-02-24T18:27:22.533Z,76.50
2023-02-24T18:29:55.495Z,76.50
2023-02-24T18:32:28.321Z,76.50
2023-02-24T18:35:01.157Z,76.50
2023-02-24T18:37:34.179Z,76.60
2023-02-24T18:40:07.480Z,76.50
2023-02-24T18:42:39.913Z,76.50
2023-02-24T18:45:13.276Z,76.40
2023-02-24T18:47:47.949Z,76.40
2023-02-24T18:50:25.252Z,76.50
2023-02-24T18:52:57.896Z,76.30
2023-02-24T18:55:30.507Z,76.40
2023-02-24T18:58:03.120Z,76.30
2023-02-24T19:00:35.701Z,76.40
2023-02-24T19:03:08.647Z,76.30
2023-02-24T19:05:41.332Z,77.20
2023-02-24T19:08:13.983Z,76.40
2023-02-24T19:10:46.623Z,76.40
2023-02-24T19:13:19.185Z,76.40
2023-02-24T19:15:52.056Z,76.40
2023-02-24T19:18:24.685Z,76.30
2023-02-24T19:20:57.469Z,76.30
2023-02-24T19:23:30.160Z,76.40
2023-02-24T19:26:02.774Z,76.40
2023-02-24T19:28:35.387Z,76.40
2023-02-24T19:31:14.664Z,76.40
2023-02-24T19:33:55.912Z,76.40
2023-02-24T19:36:29.655Z,76.40
2023-02-24T19:39:02.495Z,76.40
2023-02-24T19:41:35.115Z,76.40
2023-02-24T19:44:08.020Z,76.30
2023-02-24T19:46:40.797Z,76.30
2023-02-24T19:49:13.504Z,76.30
2023-02-24T19:51:48.220Z,76.30
2023-02-24T19:54:24.865Z,76.30
2023-02-24T19:57:10.413Z,76.30
2023-02-24T19:59:46.709Z,76.40
2023-02-24T20:02:19.600Z,76.30
2023-02-24T20:04:52.509Z,76.30
2023-02-24T20:07:25.229Z,76.30
2023-02-24T20:09:57.784Z,76.20
2023-02-24T20:12:30.424Z,76.20
2023-02-24T20:15:03.515Z,76.20
2023-02-24T20:17:36.288Z,76.10
2023-02-24T20:20:09.611Z,76.10
2023-02-24T20:22:43.128Z,76.20
2023-02-24T20:25:15.719Z,76.20
2023-02-24T20:27:48.304Z,76.20
2023-02-24T20:30:20.822Z,76.20
2023-02-24T20:32:54.110Z,76.20
2023-02-24T20:35:28.614Z,76.10
2023-02-24T20:38:01.592Z,76.20
2023-02-24T20:40:34.656Z,76.20
2023-02-24T20:46:39.202Z,76.30
2023-02-24T20:49:22.806Z,76.30
2023-02-24T20:51:55.294Z,76.20
2023-02-24T20:54:28.000Z,76.20
2023-02-24T20:57:00.599Z,76.20
2023-02-24T20:59:33.222Z,76.30
2023-02-24T21:02:05.838Z,76.30
2023-02-24T21:04:39.462Z,76.30
2023-02-24T21:07:12.134Z,76.30
2023-02-24T21:09:44.782Z,76.30
2023-02-24T21:12:17.507Z,76.30
2023-02-24T21:14:50.440Z,76.30
2023-02-24T21:17:30.625Z,76.40
2023-02-24T21:20:03.571Z,76.40
2023-02-24T21:22:36.220Z,76.40
2023-02-24T21:25:12.857Z,76.40
2023-02-24T21:27:45.622Z,76.40
2023-02-24T21:30:18.394Z,77.30
2023-02-24T21:32:51.335Z,76.40
2023-02-24T21:35:25.304Z,76.50
2023-02-24T21:38:01.003Z,76.50
2023-02-24T21:40:33.972Z,76.50
2023-02-24T21:43:06.661Z,76.60
2023-02-24T21:45:40.635Z,76.50
2023-02-24T21:48:13.258Z,76.60
2023-02-24T21:50:46.058Z,76.60
2023-02-24T21:53:18.801Z,76.70
2023-02-24T21:56:01.831Z,76.70
2023-02-24T21:58:34.406Z,76.70
2023-02-24T22:01:18.590Z,76.70
2023-02-24T22:03:57.195Z,76.70
2023-02-24T22:06:32.111Z,76.70
2023-02-24T22:09:06.657Z,76.70
2023-02-24T22:13:08.000Z,76.70
2023-02-24T22:15:18.051Z,76.70
2023-02-24T22:17:50.673Z,76.70
2023-02-24T22:20:23.227Z,76.70
2023-02-24T22:22:55.837Z,76.70
2023-02-24T22:25:28.498Z,76.70
2023-02-24T22:28:01.170Z,76.80
2023-02-24T22:30:34.093Z,76.80
2023-02-24T22:33:06.734Z,76.80
2023-02-24T22:35:39.411Z,76.80
2023-02-24T22:38:12.072Z,76.80
2023-02-24T22:40:44.719Z,76.80
2023-02-24T22:43:17.364Z,76.80
2023-02-24T22:45:58.153Z,76.80
2023-02-24T22:48:32.366Z,76.80
2023-02-24T22:51:07.125Z,76.80
2023-02-24T22:53:43.389Z,76.90
2023-02-24T22:56:19.365Z,77.00
2023-02-24T22:58:52.469Z,76.90
2023-02-24T23:01:31.259Z,76.90
2023-02-24T23:04:09.391Z,76.90
2023-02-24T23:06:42.340Z,76.90
2023-02-24T23:09:20.003Z,76.90
2023-02-24T23:11:52.795Z,76.90
2023-02-24T23:14:25.439Z,77.00
2023-02-24T23:16:59.089Z,77.00
2023-02-24T23:19:31.653Z,77.00
2023-02-24T23:22:05.094Z,77.00
2023-02-24T23:24:37.732Z,77.00
2023-02-24T23:27:10.576Z,77.00
2023-02-24T23:29:43.195Z,77.00
2023-02-24T23:32:16.354Z,77.00
2023-02-24T23:34:49.013Z,77.00
2023-02-24T23:37:21.691Z,77.00
2023-02-24T23:39:54.759Z,77.00
2023-02-24T23:42:27.414Z,77.10
2023-02-24T23:45:00.134Z,77.10
2023-02-24T23:47:32.837Z,77.20
2023-02-24T23:50:06.067Z,77.20
2023-02-24T23:52:38.709Z,77.00
2023-02-24T23:55:12.074Z,77.00
2023-02-24T23:57:44.643Z,77.10
